Time;durP1;ratioP1;P1;durP2;ratioP2;P2;SDS_P1;SDS_P2;PMS_P1;PMS_P2;Temp;Humidity;BMP_temperature;BMP_pressure;BME280_temperature;BME280_humidity;BME280_pressure;Samples;Min_cycle;Max_cycle;Signal;HPM_P1;HPM_P2
2023/12/21 00:01:13;;;;;;;10.90;2.25;;;10.70;99.90;;;;;;5047991;28;20053;-65
2023/12/21 00:03:40;;;;;;;9.75;1.88;;;10.70;99.90;;;;;;5066227;28;20040;-67
2023/12/21 00:06:07;;;;;;;11.55;1.50;;;10.70;99.90;;;;;;5066603;28;20051;-65
2023/12/21 00:08:36;;;;;;;9.95;2.08;;;10.70;99.90;;;;;;5065491;28;20106;-65
2023/12/21 00:11:03;;;;;;;6.75;1.85;;;10.70;99.90;;;;;;5066706;28;20098;-65
2023/12/21 00:13:30;;;;;;;8.13;1.42;;;10.70;99.90;;;;;;5049020;28;20188;-65
2023/12/21 00:15:57;;;;;;;6.97;1.40;;;10.70;99.90;;;;;;5081037;28;20355;-66
2023/12/21 00:18:24;;;;;;;13.75;2.28;;;10.60;99.90;;;;;;5063575;28;20048;-66
2023/12/21 00:20:51;;;;;;;9.65;1.85;;;10.60;99.90;;;;;;5048495;28;20045;-65
2023/12/21 00:23:17;;;;;;;9.95;1.75;;;10.60;99.90;;;;;;5066606;28;20543;-66
2023/12/21 00:25:47;;;;;;;7.00;1.65;;;10.70;99.90;;;;;;5065576;28;20433;-66
2023/12/21 00:28:14;;;;;;;6.30;1.38;;;10.60;99.90;;;;;;5065314;28;20106;-65
2023/12/21 00:30:41;;;;;;;5.93;1.25;;;10.70;99.90;;;;;;5066116;28;20122;-64
2023/12/21 00:33:08;;;;;;;5.75;1.33;;;10.60;99.90;;;;;;5066331;28;20114;-65
2023/12/21 00:35:35;;;;;;;4.28;1.20;;;10.60;99.90;;;;;;5047645;28;20541;-65
2023/12/21 00:38:02;;;;;;;6.35;1.58;;;10.60;99.90;;;;;;5048493;28;20048;-65
2023/12/21 00:40:29;;;;;;;13.32;3.40;;;10.60;99.90;;;;;;5066844;28;20048;-65
2023/12/21 00:42:57;;;;;;;13.60;1.52;;;10.60;99.90;;;;;;5066479;28;20036;-65
2023/12/21 00:45:24;;;;;;;6.22;1.45;;;10.60;99.90;;;;;;5070089;28;20575;-65
2023/12/21 00:47:50;;;;;;;6.63;1.67;;;10.60;99.90;;;;;;5071022;28;20125;-65
2023/12/21 00:50:18;;;;;;;4.82;1.10;;;10.60;99.90;;;;;;5053509;28;20037;-65
2023/12/21 00:52:45;;;;;;;6.68;1.55;;;10.60;99.90;;;;;;5069348;28;20051;-66
2023/12/21 00:55:12;;;;;;;12.02;2.33;;;10.60;99.90;;;;;;5070698;28;20048;-65
2023/12/21 00:57:39;;;;;;;4.88;1.35;;;10.60;99.90;;;;;;5071473;28;20150;-66
2023/12/21 01:00:06;;;;;;;7.55;1.58;;;10.60;99.90;;;;;;5070997;28;20118;-65
2023/12/21 01:02:34;;;;;;;6.05;1.45;;;10.60;99.90;;;;;;5070630;28;20044;-65
2023/12/21 01:05:01;;;;;;;4.55;2.53;;;10.60;99.90;;;;;;5070713;28;20059;-64
2023/12/21 01:07:28;;;;;;;8.95;2.38;;;10.60;99.90;;;;;;5067180;28;20052;-65
2023/12/21 01:09:55;;;;;;;5.00;1.48;;;10.60;99.90;;;;;;5070585;28;20140;-65
2023/12/21 01:12:22;;;;;;;10.55;1.90;;;10.60;99.90;;;;;;5069740;28;20040;-65
2023/12/21 01:14:49;;;;;;;5.60;2.20;;;10.60;99.90;;;;;;5052320;28;20041;-66
2023/12/21 01:17:15;;;;;;;5.10;1.90;;;10.60;99.90;;;;;;5069893;28;20102;-65
2023/12/21 01:19:42;;;;;;;8.07;1.48;;;10.70;99.90;;;;;;5070425;28;20503;-65
2023/12/21 01:22:09;;;;;;;6.47;1.20;;;10.60;99.90;;;;;;5070056;28;20048;-65
2023/12/21 01:24:36;;;;;;;8.40;1.58;;;10.60;99.90;;;;;;5061457;28;20076;-66
2023/12/21 01:27:03;;;;;;;5.47;1.25;;;10.70;99.90;;;;;;5067559;28;20061;-64
2023/12/21 01:29:34;;;;;;;6.72;1.60;;;10.70;99.90;;;;;;5070031;28;20045;-65
2023/12/21 01:32:01;;;;;;;6.45;1.25;;;10.80;99.90;;;;;;4715888;28;9999995;-66
2023/12/21 01:34:27;;;;;;;5.60;2.03;;;10.80;99.90;;;;;;5069556;28;20045;-65
2023/12/21 01:36:54;;;;;;;3.55;1.05;;;10.80;99.90;;;;;;5069538;28;20040;-64
2023/12/21 01:39:21;;;;;;;11.07;1.40;;;10.80;99.90;;;;;;5069843;28;20044;-65
2023/12/21 01:41:49;;;;;;;6.13;1.45;;;10.90;99.90;;;;;;5069304;28;20131;-65
2023/12/21 01:44:16;;;;;;;8.90;1.40;;;10.90;99.90;;;;;;5051769;28;20102;-65
2023/12/21 01:46:43;;;;;;;4.22;1.25;;;10.90;99.90;;;;;;5069078;28;20097;-65
2023/12/21 01:49:10;;;;;;;10.60;1.50;;;10.90;99.90;;;;;;5051963;28;20052;-66
2023/12/21 01:51:36;;;;;;;6.95;1.40;;;10.90;99.90;;;;;;5069994;28;20052;-65
2023/12/21 01:54:03;;;;;;;6.57;1.42;;;10.90;99.90;;;;;;5069595;28;20457;-66
2023/12/21 01:56:31;;;;;;;8.63;3.25;;;10.90;99.90;;;;;;5051988;28;20080;-66
2023/12/21 01:58:59;;;;;;;11.68;1.25;;;10.90;99.90;;;;;;5084368;28;20239;-65
2023/12/21 02:01:26;;;;;;;5.60;1.60;;;10.80;99.90;;;;;;5085191;28;20086;-66
2023/12/21 02:03:54;;;;;;;4.20;1.88;;;11.00;99.90;;;;;;5067743;28;20116;-65
2023/12/21 02:06:22;;;;;;;5.00;1.10;;;11.00;99.90;;;;;;5068690;28;20052;-67
2023/12/21 02:08:49;;;;;;;5.25;1.35;;;11.00;99.90;;;;;;5051532;28;20115;-66
2023/12/21 02:11:16;;;;;;;9.52;1.30;;;11.00;99.90;;;;;;5068257;28;20527;-65
2023/12/21 02:13:43;;;;;;;4.30;1.05;;;11.10;99.90;;;;;;5069070;28;20133;-66
2023/12/21 02:16:12;;;;;;;2.75;0.95;;;11.10;99.90;;;;;;5068750;28;20041;-65
2023/12/21 02:18:39;;;;;;;6.13;1.00;;;11.10;99.90;;;;;;5084481;28;20052;-67
2023/12/21 02:21:06;;;;;;;3.42;0.95;;;11.00;99.90;;;;;;5051430;28;20101;-66
2023/12/21 02:23:33;;;;;;;4.90;1.35;;;11.10;99.90;;;;;;5084223;28;20106;-66
2023/12/21 02:26:00;;;;;;;2.20;0.77;;;11.10;99.90;;;;;;5047204;28;20040;-66
2023/12/21 02:28:27;;;;;;;2.90;0.90;;;11.10;99.90;;;;;;5050843;28;20094;-66
2023/12/21 02:30:54;;;;;;;4.13;0.80;;;11.20;99.90;;;;;;5069060;28;20045;-65
2023/12/21 02:33:21;;;;;;;5.00;0.70;;;11.20;99.90;;;;;;5068687;28;20102;-65
2023/12/21 02:35:48;;;;;;;2.50;0.75;;;11.20;99.90;;;;;;5068520;28;20511;-65
2023/12/21 02:38:14;;;;;;;3.53;0.93;;;11.20;99.90;;;;;;5068554;28;20049;-66
2023/12/21 02:40:41;;;;;;;6.22;1.10;;;11.20;99.90;;;;;;5069154;28;20411;-65
2023/12/21 02:43:08;;;;;;;3.83;1.10;;;11.20;99.90;;;;;;5069266;28;20063;-65
2023/12/21 02:45:35;;;;;;;4.22;0.90;;;11.20;99.90;;;;;;5067174;28;20051;-65
2023/12/21 02:48:02;;;;;;;1.90;1.20;;;11.20;99.90;;;;;;5068102;28;20462;-65
2023/12/21 02:50:29;;;;;;;4.15;0.85;;;11.20;99.90;;;;;;5068874;28;20118;-66
2023/12/21 02:52:56;;;;;;;2.15;0.80;;;11.20;99.90;;;;;;5068706;28;20052;-66
2023/12/21 02:55:22;;;;;;;4.82;1.10;;;11.20;99.90;;;;;;5049749;28;20102;-64
2023/12/21 02:57:49;;;;;;;6.65;0.98;;;11.20;99.90;;;;;;5068267;28;20443;-65
2023/12/21 03:00:17;;;;;;;3.63;0.70;;;11.20;99.90;;;;;;5067935;28;20094;-65
2023/12/21 03:02:43;;;;;;;1.55;0.77;;;11.20;99.90;;;;;;5067852;28;20553;-65
2023/12/21 03:05:10;;;;;;;3.42;0.63;;;11.20;99.90;;;;;;5068140;28;20048;-66
2023/12/21 03:07:37;;;;;;;3.22;0.73;;;11.20;99.90;;;;;;5067484;28;20040;-66
2023/12/21 03:10:05;;;;;;;6.60;1.00;;;11.20;99.90;;;;;;5068560;28;20047;-66
2023/12/21 03:12:32;;;;;;;2.53;0.70;;;11.20;99.90;;;;;;5067971;28;20102;-66
2023/12/21 03:14:59;;;;;;;3.47;1.00;;;11.20;99.90;;;;;;5067660;28;20045;-65
2023/12/21 03:17:25;;;;;;;4.93;0.70;;;11.20;99.90;;;;;;5067996;28;20082;-66
2023/12/21 03:19:52;;;;;;;3.60;0.80;;;11.20;99.90;;;;;;5068319;28;20056;-66
2023/12/21 03:22:19;;;;;;;4.88;0.70;;;11.30;99.90;;;;;;5067831;28;20049;-65
2023/12/21 03:24:46;;;;;;;1.35;0.60;;;11.30;99.90;;;;;;5067578;28;20048;-66
2023/12/21 03:27:14;;;;;;;2.08;0.60;;;11.30;99.90;;;;;;5068397;28;20549;-65
2023/12/21 03:29:41;;;;;;;1.10;0.60;;;11.30;99.90;;;;;;5067624;28;20110;-65
2023/12/21 03:32:08;;;;;;;0.82;0.40;;;11.30;99.90;;;;;;5081670;28;20040;-66
2023/12/21 03:34:34;;;;;;;3.83;1.10;;;11.30;99.90;;;;;;5067971;28;20056;-65
2023/12/21 03:37:01;;;;;;;2.70;0.55;;;11.30;99.90;;;;;;5067394;28;20051;-66
2023/12/21 03:39:28;;;;;;;3.20;0.73;;;11.30;99.90;;;;;;5068081;28;20055;-66
2023/12/21 03:41:56;;;;;;;3.90;0.93;;;11.30;99.90;;;;;;5067673;28;20491;-67
2023/12/21 03:44:23;;;;;;;5.25;0.88;;;11.30;99.90;;;;;;5067701;28;20101;-66
2023/12/21 03:46:52;;;;;;;1.67;0.75;;;11.30;99.90;;;;;;5067581;28;20048;-66
2023/12/21 03:49:19;;;;;;;3.47;0.70;;;11.30;99.90;;;;;;5067764;28;20106;-66
2023/12/21 03:54:22;;;;;;;4.93;0.98;;;11.40;99.90;;;;;;4378112;22;20163;-76
2023/12/21 03:56:48;;;;;;;3.97;0.60;;;11.30;99.90;;;;;;5066673;28;20056;-75
2023/12/21 03:59:15;;;;;;;5.38;0.63;;;11.40;99.90;;;;;;5066233;28;20098;-74
2023/12/21 04:01:42;;;;;;;3.80;1.02;;;11.30;99.90;;;;;;5060186;28;20060;-77
2023/12/21 04:04:09;;;;;;;4.50;0.68;;;11.40;99.90;;;;;;5063336;28;20123;-76
2023/12/21 04:06:36;;;;;;;3.55;0.60;;;11.40;99.90;;;;;;5064647;28;20123;-76
2023/12/21 04:09:02;;;;;;;3.33;0.93;;;11.40;99.90;;;;;;5064870;28;20389;-77
2023/12/21 04:11:29;;;;;;;2.80;0.60;;;11.40;99.90;;;;;;5066961;28;20365;-77
2023/12/21 04:13:56;;;;;;;4.88;0.95;;;11.40;99.90;;;;;;5066324;28;20052;-77
2023/12/21 04:16:23;;;;;;;7.97;0.73;;;11.40;99.90;;;;;;5067030;28;20095;-78
2023/12/21 04:18:50;;;;;;;4.10;0.70;;;11.40;99.90;;;;;;5062297;28;20406;-76
2023/12/21 04:21:17;;;;;;;2.45;0.95;;;11.40;99.90;;;;;;5066974;28;20387;-78
2023/12/21 04:23:44;;;;;;;2.25;0.70;;;11.40;99.90;;;;;;5066178;28;20113;-75
2023/12/21 04:26:21;;;;;;;3.63;0.65;;;11.30;99.90;;;;;;5067480;28;20388;-74
2023/12/21 04:28:48;;;;;;;2.30;0.98;;;11.30;99.90;;;;;;5066378;28;20040;-78
2023/12/21 04:31:19;;;;;;;5.78;1.17;;;11.30;99.90;;;;;;5066864;28;20087;-78
2023/12/21 04:33:48;;;;;;;6.07;1.27;;;11.40;99.90;;;;;;5066334;28;20051;-76
2023/12/21 04:36:16;;;;;;;3.45;0.80;;;11.30;99.90;;;;;;5066519;28;20033;-75
2023/12/21 04:38:43;;;;;;;2.80;0.80;;;11.40;99.90;;;;;;5066455;28;20052;-76
2023/12/21 04:41:10;;;;;;;6.15;0.88;;;11.40;99.90;;;;;;5063025;28;20097;-75
2023/12/21 04:43:37;;;;;;;2.42;0.68;;;11.40;99.90;;;;;;5062499;28;20131;-76
2023/12/21 04:46:05;;;;;;;6.18;1.08;;;11.30;99.90;;;;;;5059162;28;20325;-76
2023/12/21 04:48:32;;;;;;;4.00;0.82;;;11.40;99.90;;;;;;5065928;28;20535;-76
2023/12/21 04:51:00;;;;;;;2.90;0.60;;;11.40;99.90;;;;;;5065252;28;20136;-77
2023/12/21 04:53:27;;;;;;;5.45;0.88;;;11.40;99.90;;;;;;5064989;28;20052;-77
2023/12/21 04:55:54;;;;;;;4.13;0.60;;;11.40;99.90;;;;;;5065497;28;20131;-76
2023/12/21 04:58:21;;;;;;;5.00;0.88;;;11.30;99.90;;;;;;5065972;28;20262;-77
2023/12/21 05:00:50;;;;;;;2.03;0.70;;;11.30;99.90;;;;;;5066452;28;20053;-77
2023/12/21 05:03:19;;;;;;;1.98;0.70;;;11.30;99.90;;;;;;5066473;28;20048;-77
2023/12/21 05:05:46;;;;;;;3.42;0.60;;;11.30;99.90;;;;;;5066269;28;20045;-77
2023/12/21 05:08:13;;;;;;;3.25;0.70;;;11.30;99.90;;;;;;5065428;28;20119;-77
2023/12/21 05:10:40;;;;;;;5.00;1.00;;;11.20;99.90;;;;;;5065547;28;20048;-77
2023/12/21 05:13:07;;;;;;;1.75;0.45;;;11.30;99.90;;;;;;5065923;28;20155;-76
2023/12/21 05:15:34;;;;;;;3.78;0.80;;;11.20;99.90;;;;;;5062781;28;20064;-77
2023/12/21 05:18:01;;;;;;;1.42;0.40;;;11.30;99.90;;;;;;5066030;28;20044;-77
2023/12/21 05:20:29;;;;;;;2.80;0.75;;;11.30;99.90;;;;;;5064010;28;20053;-76
2023/12/21 05:22:55;;;;;;;2.95;0.80;;;11.30;99.90;;;;;;5066045;28;20052;-77
2023/12/21 05:25:26;;;;;;;2.25;0.60;;;11.30;99.90;;;;;;5065466;28;20516;-76
2023/12/21 05:27:54;;;;;;;1.30;0.57;;;11.30;99.90;;;;;;5065465;28;20547;-76
2023/12/21 05:30:21;;;;;;;2.65;0.73;;;11.30;99.90;;;;;;5067108;28;20048;-76
2023/12/21 05:32:48;;;;;;;1.45;0.60;;;11.30;99.90;;;;;;5068170;28;20163;-77
2023/12/21 05:35:16;;;;;;;2.33;0.65;;;11.30;99.90;;;;;;5067722;28;20080;-77
2023/12/21 05:37:43;;;;;;;3.92;0.52;;;11.30;99.90;;;;;;5069476;28;20102;-76
2023/12/21 05:40:10;;;;;;;1.60;0.50;;;11.30;99.90;;;;;;5067663;28;20048;-76
2023/12/21 05:42:37;;;;;;;1.45;0.55;;;11.30;99.90;;;;;;5069665;28;20045;-77
2023/12/21 05:45:04;;;;;;;3.55;0.80;;;11.30;99.90;;;;;;5065948;28;20430;-77
2023/12/21 05:47:31;;;;;;;2.50;0.80;;;11.30;99.90;;;;;;5069350;28;20044;-76
2023/12/21 05:49:59;;;;;;;2.42;0.85;;;11.30;99.90;;;;;;5069461;28;20106;-77
2023/12/21 05:52:26;;;;;;;4.18;0.70;;;11.30;99.90;;;;;;5069662;28;20490;-74
2023/12/21 05:54:53;;;;;;;2.17;0.70;;;11.30;99.90;;;;;;5069247;28;20117;-76
2023/12/21 05:57:20;;;;;;;1.85;0.80;;;11.30;99.90;;;;;;5068382;28;20040;-76
2023/12/21 05:59:47;;;;;;;1.85;0.47;;;11.30;99.90;;;;;;5069646;28;20559;-77
2023/12/21 06:02:13;;;;;;;1.80;0.60;;;11.40;99.90;;;;;;5069434;28;20041;-77
2023/12/21 06:04:40;;;;;;;4.00;0.50;;;11.30;99.90;;;;;;5067513;28;20045;-77
2023/12/21 06:07:07;;;;;;;2.05;0.40;;;11.40;99.90;;;;;;5067980;28;20087;-76
2023/12/21 06:09:34;;;;;;;2.20;0.60;;;11.30;99.90;;;;;;5069214;28;20426;-76
2023/12/21 06:12:01;;;;;;;1.40;0.57;;;11.40;99.90;;;;;;5068757;28;20048;-76
2023/12/21 06:14:28;;;;;;;2.92;0.60;;;11.40;99.90;;;;;;5069393;28;20113;-76
2023/12/21 06:16:54;;;;;;;3.30;0.77;;;11.40;99.90;;;;;;5069465;28;20044;-76
2023/12/21 06:19:21;;;;;;;3.60;0.70;;;11.40;99.90;;;;;;5069406;28;20044;-76
2023/12/21 06:21:48;;;;;;;2.17;0.80;;;11.40;99.90;;;;;;5068961;28;20299;-75
2023/12/21 06:24:15;;;;;;;3.13;0.52;;;11.40;99.90;;;;;;5067574;28;20125;-77
2023/12/21 06:26:42;;;;;;;3.83;0.80;;;11.40;99.90;;;;;;5067782;28;20070;-76
2023/12/21 06:29:09;;;;;;;6.70;1.05;;;11.40;99.90;;;;;;5069592;28;20491;-77
2023/12/21 06:31:36;;;;;;;7.15;0.88;;;11.30;99.90;;;;;;5055956;28;20044;-76
2023/12/21 06:34:03;;;;;;;6.50;0.90;;;11.30;99.90;;;;;;5067116;28;20386;-77
2023/12/21 06:36:31;;;;;;;1.77;0.70;;;11.30;99.90;;;;;;5068726;28;20048;-76
2023/12/21 06:38:58;;;;;;;3.47;0.80;;;11.40;99.90;;;;;;5060348;28;20048;-76
2023/12/21 06:41:25;;;;;;;4.30;0.70;;;11.40;99.90;;;;;;5067203;28;20097;-77
2023/12/21 06:43:52;;;;;;;3.55;1.45;;;11.40;99.90;;;;;;5068401;28;20367;-77
2023/12/21 06:46:20;;;;;;;2.05;0.90;;;11.40;99.90;;;;;;5068704;28;20409;-77
2023/12/21 06:48:47;;;;;;;4.75;1.13;;;11.40;99.90;;;;;;5068379;28;20060;-76
2023/12/21 06:51:15;;;;;;;4.00;0.63;;;11.40;99.90;;;;;;5068333;28;20561;-75
2023/12/21 06:53:41;;;;;;;2.67;0.90;;;11.40;99.90;;;;;;5067640;28;20107;-76
2023/12/21 06:56:11;;;;;;;3.03;0.90;;;11.40;99.90;;;;;;5068464;28;20049;-76
2023/12/21 06:58:58;;;;;;;5.15;1.83;;;11.40;99.90;;;;;;5067504;28;20048;-77
2023/12/21 07:01:26;;;;;;;1.88;0.60;;;11.60;99.90;;;;;;5068115;28;20083;-77
2023/12/21 07:03:54;;;;;;;7.55;1.00;;;11.60;99.90;;;;;;5068165;28;20462;-76
2023/12/21 07:06:21;;;;;;;4.22;0.70;;;11.60;99.90;;;;;;5068269;28;20040;-78
2023/12/21 07:08:47;;;;;;;2.67;0.90;;;11.60;99.90;;;;;;5066155;28;20057;-77
2023/12/21 07:11:15;;;;;;;6.90;3.80;;;11.60;99.90;;;;;;5067526;28;20131;-77
2023/12/21 07:13:42;;;;;;;8.68;2.05;;;11.60;99.90;;;;;;5067568;28;20048;-77
2023/12/21 07:16:09;;;;;;;3.47;0.88;;;11.60;99.90;;;;;;5066977;28;20527;-78
2023/12/21 07:18:36;;;;;;;5.97;1.40;;;11.70;99.90;;;;;;5066703;28;20067;-77
2023/12/21 07:21:07;;;;;;;4.78;0.90;;;11.60;99.90;;;;;;5065952;28;20449;-74
2023/12/21 07:23:34;;;;;;;9.05;0.80;;;11.70;99.90;;;;;;5066764;28;20040;-77
2023/12/21 07:26:00;;;;;;;6.40;0.98;;;11.70;99.90;;;;;;5060256;28;20045;-75
2023/12/21 07:28:31;;;;;;;6.07;1.15;;;11.70;99.90;;;;;;5064395;28;20040;-76
2023/12/21 07:30:59;;;;;;;4.38;1.10;;;11.70;99.90;;;;;;5064985;28;20117;-75
2023/12/21 07:33:26;;;;;;;7.63;0.82;;;11.70;99.90;;;;;;5067148;28;20045;-76
2023/12/21 07:35:53;;;;;;;3.45;0.73;;;11.80;99.90;;;;;;5061846;28;20048;-76
2023/12/21 07:38:20;;;;;;;5.00;1.08;;;11.90;99.90;;;;;;5065405;28;20379;-76
2023/12/21 07:40:47;;;;;;;7.18;0.98;;;12.00;99.90;;;;;;5066563;28;20040;-76
2023/12/21 07:43:14;;;;;;;4.28;0.93;;;12.00;99.90;;;;;;5066491;28;20115;-76
2023/12/21 07:45:40;;;;;;;1.88;0.73;;;12.00;99.90;;;;;;5057835;28;20048;-75
2023/12/21 07:48:07;;;;;;;4.95;1.20;;;12.00;99.90;;;;;;5060214;28;20056;-75
2023/12/21 07:50:35;;;;;;;2.78;1.00;;;12.10;99.90;;;;;;5060243;28;20426;-76
2023/12/21 07:53:01;;;;;;;2.17;0.60;;;12.10;99.90;;;;;;5062006;28;20053;-74
2023/12/21 07:55:28;;;;;;;4.18;1.45;;;12.10;99.90;;;;;;5060225;28;20075;-75
2023/12/21 07:57:55;;;;;;;6.18;1.13;;;12.20;99.90;;;;;;5055709;28;20040;-76
2023/12/21 08:00:22;;;;;;;7.93;1.63;;;12.20;99.90;;;;;;5059324;28;20056;-76
2023/12/21 08:02:49;;;;;;;11.70;1.35;;;12.20;99.90;;;;;;5062552;28;20102;-76
2023/12/21 08:05:16;;;;;;;5.97;1.00;;;12.20;99.90;;;;;;5064990;28;20349;-76
2023/12/21 08:07:43;;;;;;;10.23;1.70;;;12.20;99.90;;;;;;5067676;28;20168;-75
2023/12/21 08:10:10;;;;;;;4.63;1.05;;;12.20;99.90;;;;;;5065034;28;20048;-75
2023/12/21 08:12:37;;;;;;;5.57;0.98;;;12.20;99.90;;;;;;5065796;28;20262;-75
2023/12/21 08:15:04;;;;;;;9.02;1.60;;;12.20;99.90;;;;;;5068503;28;20049;-75
2023/12/21 08:17:32;;;;;;;4.55;1.00;;;12.20;99.90;;;;;;5063224;28;20048;-75
2023/12/21 08:19:59;;;;;;;7.80;1.45;;;12.20;99.90;;;;;;5066980;28;20040;-74
2023/12/21 08:22:26;;;;;;;7.35;1.20;;;12.20;99.90;;;;;;5067744;28;20053;-74
2023/12/21 08:24:54;;;;;;;7.38;1.38;;;12.20;99.90;;;;;;5066772;28;20068;-75
2023/12/21 08:27:21;;;;;;;6.82;1.13;;;12.20;99.90;;;;;;5066223;28;20050;-74
2023/12/21 08:29:48;;;;;;;8.35;1.27;;;12.20;99.90;;;;;;5066796;28;20569;-74
2023/12/21 08:32:14;;;;;;;8.02;1.00;;;12.10;99.90;;;;;;5065117;28;20578;-73
2023/12/21 08:34:42;;;;;;;2.45;0.73;;;12.10;99.90;;;;;;5063282;28;20410;-74
2023/12/21 08:37:10;;;;;;;4.53;0.88;;;12.10;99.90;;;;;;5063262;28;20045;-73
2023/12/21 08:39:39;;;;;;;7.55;1.38;;;12.00;99.90;;;;;;5064215;28;20084;-75
2023/12/21 08:42:08;;;;;;;6.93;1.00;;;12.00;99.90;;;;;;5066228;28;20315;-77
2023/12/21 08:44:36;;;;;;;4.72;0.98;;;12.00;99.90;;;;;;5067066;28;20059;-76
2023/12/21 08:47:04;;;;;;;5.53;1.13;;;12.00;99.90;;;;;;5066996;28;20041;-75
2023/12/21 08:49:31;;;;;;;3.00;1.38;;;12.00;99.90;;;;;;5062743;28;20048;-76
2023/12/21 08:51:59;;;;;;;1.60;0.70;;;12.10;99.90;;;;;;5062749;28;20159;-75
2023/12/21 08:54:26;;;;;;;5.40;0.95;;;12.10;99.90;;;;;;5056708;28;20574;-76
2023/12/21 08:56:53;;;;;;;2.38;0.90;;;12.10;99.90;;;;;;5062590;28;20040;-75
2023/12/21 08:59:20;;;;;;;5.30;0.98;;;12.10;99.90;;;;;;5065431;28;20063;-76
2023/12/21 09:01:46;;;;;;;5.88;0.80;;;12.10;99.90;;;;;;5065072;28;20045;-76
2023/12/21 09:04:13;;;;;;;4.97;0.85;;;12.10;99.90;;;;;;5063323;28;20041;-74
2023/12/21 09:06:40;;;;;;;6.05;1.40;;;12.10;99.90;;;;;;5068900;28;20492;-77
2023/12/21 09:09:07;;;;;;;8.15;1.55;;;12.10;99.90;;;;;;5062329;28;20040;-77
2023/12/21 09:11:34;;;;;;;10.32;1.38;;;12.10;99.90;;;;;;5068874;28;20155;-76
2023/12/21 09:14:01;;;;;;;3.78;0.88;;;12.10;99.90;;;;;;5066916;28;20162;-75
2023/12/21 09:16:28;;;;;;;8.25;1.63;;;12.10;99.90;;;;;;5069382;28;20052;-76
2023/12/21 09:18:54;;;;;;;5.07;1.58;;;12.10;99.90;;;;;;5069288;28;20260;-75
2023/12/21 09:21:22;;;;;;;3.72;1.05;;;12.10;99.90;;;;;;5069432;28;20128;-76
2023/12/21 09:23:48;;;;;;;3.90;1.00;;;12.10;99.90;;;;;;5065263;28;20311;-75
2023/12/21 09:26:15;;;;;;;3.85;0.90;;;12.10;99.90;;;;;;5069028;28;20144;-75
2023/12/21 09:28:42;;;;;;;9.43;1.50;;;12.20;99.90;;;;;;5069557;28;20170;-74
2023/12/21 09:31:09;;;;;;;2.40;1.05;;;12.20;99.90;;;;;;5066392;28;20139;-76
2023/12/21 09:33:40;;;;;;;4.32;1.30;;;12.10;99.90;;;;;;5068390;28;20537;-77
2023/12/21 09:36:09;;;;;;;3.80;0.80;;;12.10;99.90;;;;;;5066020;28;20052;-74
2023/12/21 09:38:36;;;;;;;6.35;0.90;;;12.20;99.90;;;;;;5063053;28;20040;-73
2023/12/21 09:41:03;;;;;;;3.80;0.85;;;12.20;99.90;;;;;;5069640;28;20067;-74
2023/12/21 09:43:30;;;;;;;5.72;0.68;;;12.20;99.90;;;;;;5066384;28;20099;-73
2023/12/21 09:45:57;;;;;;;5.90;1.13;;;12.20;99.90;;;;;;5048915;28;20059;-72
2023/12/21 09:48:25;;;;;;;5.22;0.95;;;12.10;99.90;;;;;;5065373;28;20041;-74
2023/12/21 09:50:53;;;;;;;5.30;0.77;;;12.20;99.90;;;;;;5067435;28;20037;-74
2023/12/21 09:53:22;;;;;;;4.93;1.02;;;12.10;99.90;;;;;;5063987;28;20045;-73
2023/12/21 09:55:50;;;;;;;7.10;0.93;;;12.10;99.90;;;;;;5067239;28;20052;-73
2023/12/21 09:58:17;;;;;;;6.53;1.25;;;12.00;99.90;;;;;;5067889;28;20164;-73
2023/12/21 10:00:43;;;;;;;8.93;2.83;;;12.00;99.90;;;;;;5061902;28;20467;-69
2023/12/21 10:03:10;;;;;;;6.82;1.20;;;11.90;99.90;;;;;;5050879;28;20457;-72
2023/12/21 10:05:39;;;;;;;8.43;1.55;;;11.80;99.90;;;;;;5066231;28;20471;-74
2023/12/21 10:08:07;;;;;;;8.30;1.13;;;11.80;99.90;;;;;;5056996;28;20070;-71
2023/12/21 10:10:36;;;;;;;8.30;1.42;;;11.70;99.90;;;;;;5063960;28;20041;-72
2023/12/21 10:13:03;;;;;;;10.48;3.15;;;11.60;99.90;;;;;;5068936;28;20059;-68
2023/12/21 10:15:33;;;;;;;10.23;1.48;;;11.60;99.90;;;;;;5067456;28;20044;-74
2023/12/21 10:18:00;;;;;;;4.90;1.10;;;11.70;99.90;;;;;;5068269;28;20045;-74
2023/12/21 10:20:27;;;;;;;4.72;1.95;;;11.70;99.90;;;;;;5064216;28;20086;-71
2023/12/21 10:22:56;;;;;;;10.15;1.35;;;11.70;99.90;;;;;;5066687;28;20052;-71
2023/12/21 10:25:23;;;;;;;2.90;0.95;;;11.70;99.90;;;;;;5065270;28;20052;-73
2023/12/21 10:27:54;;;;;;;2.65;0.85;;;11.70;99.90;;;;;;5064148;28;20499;-74
2023/12/21 10:30:24;;;;;;;9.80;1.17;;;11.80;99.90;;;;;;5065708;28;20494;-74
2023/12/21 10:32:57;;;;;;;3.38;1.17;;;11.90;99.90;;;;;;5062747;28;20049;-74
2023/12/21 10:35:26;;;;;;;3.15;1.00;;;11.90;99.90;;;;;;5064988;28;20109;-74
2023/12/21 10:37:54;;;;;;;6.18;1.10;;;12.00;99.90;;;;;;5063426;28;20321;-73
2023/12/21 10:40:24;;;;;;;2.15;0.90;;;12.00;99.90;;;;;;5066904;28;20075;-73
2023/12/21 10:42:54;;;;;;;4.68;1.42;;;12.10;99.90;;;;;;5061522;28;20513;-73
2023/12/21 10:45:21;;;;;;;3.20;0.88;;;12.10;99.90;;;;;;5067656;28;20052;-74
2023/12/21 10:48:08;;;;;;;5.97;0.80;;;12.20;99.90;;;;;;5062898;28;20041;-73
2023/12/21 10:50:36;;;;;;;3.30;0.93;;;12.20;99.90;;;;;;5060396;28;20058;-74
2023/12/21 10:53:03;;;;;;;5.40;0.80;;;12.20;99.90;;;;;;5065006;28;20052;-73
2023/12/21 10:55:31;;;;;;;4.47;1.77;;;12.30;99.90;;;;;;5065214;28;20106;-73
2023/12/21 10:58:00;;;;;;;8.80;1.50;;;12.30;99.90;;;;;;5067635;28;20511;-73
2023/12/21 11:00:27;;;;;;;14.35;1.38;;;12.30;99.90;;;;;;5067027;28;20139;-75
2023/12/21 11:02:54;;;;;;;5.80;1.00;;;12.30;99.90;;;;;;5066264;28;20043;-73
2023/12/21 11:05:22;;;;;;;3.63;1.05;;;12.40;99.90;;;;;;5049671;28;20073;-76
2023/12/21 11:07:50;;;;;;;5.75;1.00;;;12.40;99.90;;;;;;5068132;28;20423;-75
2023/12/21 11:10:18;;;;;;;5.43;0.95;;;12.40;99.90;;;;;;5069002;28;20072;-77
2023/12/21 11:12:45;;;;;;;3.75;1.20;;;12.50;99.90;;;;;;5068387;28;20040;-74
2023/12/21 11:15:12;;;;;;;3.72;1.00;;;12.50;99.90;;;;;;5067487;28;20120;-74
2023/12/21 11:17:40;;;;;;;2.80;0.95;;;12.60;99.90;;;;;;5064377;28;20049;-74
2023/12/21 11:20:08;;;;;;;4.70;0.85;;;12.60;99.90;;;;;;5065650;28;20059;-74
2023/12/21 11:22:38;;;;;;;4.85;1.00;;;12.60;99.90;;;;;;5063960;28;20060;-74
2023/12/21 11:25:08;;;;;;;5.80;1.25;;;12.60;99.90;;;;;;5065345;28;20045;-74
2023/12/21 11:27:41;;;;;;;8.93;1.33;;;12.60;99.90;;;;;;5070039;28;20555;-73
2023/12/21 11:30:11;;;;;;;3.63;2.10;;;12.60;99.90;;;;;;5066048;28;20130;-74
2023/12/21 11:32:40;;;;;;;9.07;1.63;;;12.70;99.90;;;;;;5067973;28;20053;-73
2023/12/21 11:35:20;;;;;;;3.75;0.95;;;12.70;99.90;;;;;;5067261;28;20136;-73
2023/12/21 11:37:52;;;;;;;5.80;1.20;;;12.90;99.90;;;;;;5060923;28;20090;-74
2023/12/21 11:40:19;;;;;;;13.07;1.77;;;13.00;99.90;;;;;;5065978;28;20055;-74
2023/12/21 11:42:47;;;;;;;11.80;2.47;;;13.20;99.90;;;;;;5067984;28;20049;-74
2023/12/21 11:45:28;;;;;;;11.65;5.45;;;13.20;99.90;;;;;;5063307;28;20071;-74
2023/12/21 11:48:05;;;;;;;8.75;2.33;;;13.30;99.90;;;;;;5064721;28;20441;-74
2023/12/21 11:50:33;;;;;;;5.25;1.73;;;13.30;99.90;;;;;;4362252;28;10000609;-75
2023/12/21 11:53:08;;;;;;;3.13;1.20;;;13.40;99.90;;;;;;5055465;28;20099;-74
2023/12/21 11:55:44;;;;;;;4.10;0.98;;;13.40;99.90;;;;;;5060960;28;20479;-72
2023/12/21 11:58:19;;;;;;;2.30;0.80;;;13.40;99.90;;;;;;5061239;28;20096;-74
2023/12/21 12:00:50;;;;;;;5.72;0.85;;;13.50;99.90;;;;;;5056336;28;20418;-74
2023/12/21 12:03:18;;;;;;;1.50;0.77;;;13.50;99.90;;;;;;5055215;28;20128;-74
2023/12/21 12:05:45;;;;;;;6.15;1.00;;;13.50;99.90;;;;;;5062282;28;20386;-75
2023/12/21 12:08:12;;;;;;;3.42;1.48;;;13.60;99.90;;;;;;5055336;28;20045;-74
2023/12/21 12:10:39;;;;;;;6.82;2.15;;;13.60;99.90;;;;;;5059369;28;20052;-74
2023/12/21 12:13:07;;;;;;;5.60;1.15;;;13.50;99.90;;;;;;5052502;28;20450;-74
2023/12/21 12:15:34;;;;;;;4.85;0.98;;;13.60;99.90;;;;;;5057382;28;20528;-73
2023/12/21 12:18:07;;;;;;;6.18;1.35;;;13.70;99.90;;;;;;5058086;28;20526;-74
2023/12/21 12:20:44;;;;;;;4.07;0.80;;;13.70;99.90;;;;;;5060753;28;20170;-74
2023/12/21 12:23:12;;;;;;;22.55;1.52;;;13.70;99.90;;;;;;5060070;28;20097;-74
2023/12/21 12:25:38;;;;;;;3.83;1.20;;;13.80;99.90;;;;;;5055832;28;20144;-73
2023/12/21 12:28:14;;;;;;;4.25;1.10;;;13.80;99.90;;;;;;5049287;28;20045;-74
2023/12/21 12:30:42;;;;;;;3.72;0.65;;;13.80;99.90;;;;;;5053211;28;20045;-73
2023/12/21 12:33:11;;;;;;;3.50;0.73;;;13.80;99.90;;;;;;5054724;28;20048;-74
2023/12/21 12:35:40;;;;;;;2.53;0.60;;;13.80;99.90;;;;;;5057158;28;20086;-73
2023/12/21 12:38:07;;;;;;;1.55;0.90;;;13.70;99.90;;;;;;5056296;28;20049;-74
2023/12/21 12:40:34;;;;;;;5.47;1.40;;;13.80;99.90;;;;;;5054800;28;20101;-74
2023/12/21 12:43:01;;;;;;;6.00;1.50;;;13.70;99.90;;;;;;5058191;28;20044;-74
2023/12/21 12:45:32;;;;;;;5.90;0.90;;;13.60;99.90;;;;;;5059973;28;20342;-74
2023/12/21 12:47:58;;;;;;;3.72;0.80;;;13.50;99.90;;;;;;5054605;28;20053;-74
2023/12/21 12:50:26;;;;;;;2.25;1.05;;;13.50;99.90;;;;;;5053329;28;20748;-74